createdAt,value
2023-02-17T00:00:44.284Z,39.04
2023-02-17T00:03:15.054Z,38.97
2023-02-17T00:05:46.330Z,38.55
2023-02-17T00:08:16.348Z,38.92
2023-02-17T00:10:46.817Z,38.84
2023-02-17T00:13:17.104Z,39.04
2023-02-17T00:15:49.631Z,38.99
2023-02-17T00:18:20.190Z,38.66
2023-02-17T00:20:50.784Z,38.67
2023-02-17T00:23:22.884Z,38.49
2023-02-17T00:25:53.102Z,38.32
2023-02-17T00:28:23.969Z,38.81
2023-02-17T00:30:56.490Z,38.86
2023-02-17T00:33:26.646Z,38.58
2023-02-17T00:35:57.040Z,38.94
2023-02-17T00:38:28.074Z,38.26
2023-02-17T00:40:58.482Z,38.83
2023-02-17T00:43:29.543Z,38.52
2023-02-17T00:46:04.546Z,38.78
2023-02-17T00:48:35.835Z,38.75
2023-02-17T00:51:06.416Z,38.86
2023-02-17T00:53:37.269Z,39.04
2023-02-17T00:56:09.010Z,38.58
2023-02-17T00:58:41.937Z,38.21
2023-02-17T01:01:15.532Z,38.55
2023-02-17T01:03:46.836Z,38.44
2023-02-17T01:06:26.506Z,38.85
2023-02-17T01:08:57.426Z,38.94
2023-02-17T01:11:30.788Z,38.64
2023-02-17T01:14:06.847Z,38.83
2023-02-17T01:16:41.487Z,38.43
2023-02-17T01:19:16.707Z,38.89
2023-02-17T01:21:48.116Z,38.90
2023-02-17T01:24:18.400Z,38.79
2023-02-17T01:26:49.122Z,38.92
2023-02-17T01:29:21.747Z,38.81
2023-02-17T01:31:54.543Z,38.37
2023-02-17T01:34:25.830Z,38.49
2023-02-17T01:36:56.334Z,38.68
2023-02-17T01:39:26.967Z,38.55
2023-02-17T01:41:57.636Z,38.25
2023-02-17T01:44:29.635Z,38.22
2023-02-17T01:47:01.390Z,38.84
2023-02-17T01:49:38.482Z,38.20
2023-02-17T01:52:15.229Z,38.64
2023-02-17T01:54:52.260Z,38.53
2023-02-17T01:57:30.272Z,38.47
2023-02-17T02:00:01.829Z,38.58
2023-02-17T02:02:34.612Z,38.59
2023-02-17T02:05:06.307Z,38.65
2023-02-17T02:07:45.727Z,38.62
2023-02-17T02:10:19.646Z,38.60
2023-02-17T02:12:50.271Z,38.52
2023-02-17T02:15:25.898Z,38.19
2023-02-17T02:18:43.940Z,38.50
2023-02-17T02:21:54.056Z,38.53
2023-02-17T02:24:39.906Z,38.45
2023-02-17T02:27:44.760Z,38.00
2023-02-17T02:30:57.843Z,38.13
2023-02-17T02:33:41.258Z,38.12
2023-02-17T02:36:20.722Z,38.29
2023-02-17T02:39:01.022Z,38.23
2023-02-17T02:41:38.548Z,38.11
2023-02-17T02:44:10.575Z,38.15
2023-02-17T02:46:42.223Z,38.02
2023-02-17T02:49:15.553Z,38.21
2023-02-17T02:51:58.168Z,37.92
2023-02-17T02:54:46.450Z,38.27
2023-02-17T02:57:39.358Z,38.30
2023-02-17T03:00:23.169Z,37.93
2023-02-17T03:03:01.232Z,37.82
2023-02-17T03:05:44.308Z,38.33
2023-02-17T03:08:23.112Z,38.21
2023-02-17T03:10:56.488Z,38.34
2023-02-17T03:13:27.720Z,38.12
2023-02-17T03:15:59.082Z,38.01
2023-02-17T03:18:29.724Z,38.00
2023-02-17T03:21:10.785Z,38.26
2023-02-17T03:23:41.022Z,38.52
2023-02-17T03:26:11.654Z,38.04
2023-02-17T03:28:42.361Z,38.40
2023-02-17T03:31:12.926Z,37.89
2023-02-17T03:33:44.071Z,37.96
2023-02-17T03:36:16.155Z,38.30
2023-02-17T03:38:47.350Z,38.46
2023-02-17T03:41:18.062Z,38.52
2023-02-17T03:43:48.671Z,37.96
2023-02-17T03:46:21.060Z,37.91
2023-02-17T03:48:51.605Z,37.97
2023-02-17T03:51:27.784Z,38.08
2023-02-17T03:53:57.802Z,38.04
2023-02-17T03:56:28.318Z,37.78
2023-02-17T03:58:59.411Z,37.85
2023-02-17T04:01:30.050Z,37.83
2023-02-17T04:04:01.551Z,37.93
2023-02-17T04:06:34.204Z,37.78
2023-02-17T04:09:05.621Z,38.31
2023-02-17T04:11:36.153Z,38.20
2023-02-17T04:14:06.881Z,37.81
2023-02-17T04:16:39.562Z,37.78
2023-02-17T04:19:11.308Z,37.90
2023-02-17T04:21:44.008Z,37.88
2023-02-17T04:24:15.086Z,38.21
2023-02-17T04:26:45.820Z,38.33
2023-02-17T04:29:15.869Z,38.50
2023-02-17T04:31:46.149Z,38.11
2023-02-17T04:34:17.180Z,38.05
2023-02-17T04:36:49.876Z,38.29
2023-02-17T04:39:20.394Z,38.02
2023-02-17T04:41:51.012Z,38.03
2023-02-17T04:44:21.792Z,38.00
2023-02-17T04:46:52.454Z,38.37
2023-02-17T04:49:23.213Z,38.06
2023-02-17T04:51:55.718Z,38.04
2023-02-17T04:54:26.320Z,38.30
2023-02-17T04:56:56.372Z,38.35
2023-02-17T04:59:27.092Z,38.48
2023-02-17T05:01:57.712Z,38.49
2023-02-17T05:04:28.977Z,38.65
2023-02-17T05:07:01.419Z,38.54
2023-02-17T05:09:31.961Z,39.02
2023-02-17T05:12:03.421Z,39.03
2023-02-17T05:14:34.621Z,39.19
2023-02-17T05:17:05.269Z,39.05
2023-02-17T05:19:37.113Z,39.43
2023-02-17T05:22:09.805Z,39.66
2023-02-17T05:24:39.781Z,39.56
2023-02-17T05:27:10.597Z,39.63
2023-02-17T05:29:41.306Z,39.61
2023-02-17T05:32:11.966Z,39.34
2023-02-17T05:34:43.443Z,39.52
2023-02-17T05:37:16.463Z,39.58
2023-02-17T05:39:47.654Z,39.99
2023-02-17T05:42:18.987Z,39.73
2023-02-17T05:44:51.988Z,39.67
2023-02-17T05:47:22.795Z,39.66
2023-02-17T05:49:53.007Z,40.06
2023-02-17T05:52:25.585Z,39.74
2023-02-17T05:54:56.229Z,39.80
2023-02-17T05:57:28.479Z,39.80
2023-02-17T05:59:59.111Z,39.73
2023-02-17T06:02:29.116Z,39.89
2023-02-17T06:04:59.367Z,39.93
2023-02-17T06:07:31.077Z,40.06
2023-02-17T06:10:01.296Z,39.60
2023-02-17T06:12:32.002Z,39.63
2023-02-17T06:15:02.338Z,39.56
2023-02-17T06:17:33.420Z,39.94
2023-02-17T06:20:03.919Z,39.66
2023-02-17T06:22:36.765Z,39.94
2023-02-17T06:25:07.306Z,39.63
2023-02-17T06:27:37.807Z,39.41
2023-02-17T06:30:10.713Z,39.51
2023-02-17T06:32:40.636Z,39.55
2023-02-17T06:35:12.218Z,39.20
2023-02-17T06:37:45.045Z,39.11
2023-02-17T06:40:17.141Z,39.55
2023-02-17T06:42:47.889Z,38.95
2023-02-17T06:45:18.798Z,38.89
2023-02-17T06:47:48.735Z,38.98
2023-02-17T06:50:19.573Z,39.24
2023-02-17T06:52:52.079Z,38.74
2023-02-17T06:55:22.815Z,38.66
2023-02-17T06:57:53.350Z,38.43
2023-02-17T07:00:25.539Z,38.71
2023-02-17T07:02:56.322Z,38.69
2023-02-17T07:05:27.070Z,38.64
2023-02-17T07:08:01.183Z,38.23
2023-02-17T07:10:32.098Z,37.99
2023-02-17T07:13:02.863Z,37.93
2023-02-17T07:15:33.402Z,38.02
2023-02-17T07:18:05.005Z,37.72
2023-02-17T07:20:35.154Z,37.84
2023-02-17T07:23:07.593Z,37.81
2023-02-17T07:25:38.354Z,37.42
2023-02-17T07:28:09.603Z,37.61
2023-02-17T07:30:41.355Z,37.46
2023-02-17T07:33:12.285Z,37.39
2023-02-17T07:35:46.435Z,37.23
2023-02-17T07:38:18.751Z,37.45
2023-02-17T07:40:48.706Z,37.19
2023-02-17T07:43:18.822Z,37.30
2023-02-17T07:45:50.279Z,37.10
2023-02-17T07:48:21.208Z,36.87
2023-02-17T07:50:52.034Z,36.76
2023-02-17T07:53:24.250Z,36.54
2023-02-17T07:55:54.952Z,36.67
2023-02-17T07:58:25.433Z,36.51
2023-02-17T08:00:55.594Z,36.51
2023-02-17T08:03:25.610Z,36.48
2023-02-17T08:05:56.241Z,36.37
2023-02-17T08:08:45.597Z,36.22
2023-02-17T08:11:36.481Z,36.05
2023-02-17T08:14:07.397Z,35.88
2023-02-17T08:16:38.166Z,35.81
2023-02-17T08:19:08.282Z,35.61
2023-02-17T08:21:39.017Z,35.71
2023-02-17T08:24:11.704Z,35.85
2023-02-17T08:26:43.156Z,35.59
2023-02-17T08:29:14.220Z,35.17
2023-02-17T08:31:44.892Z,35.32
2023-02-17T08:34:16.899Z,35.31
2023-02-17T08:36:48.044Z,35.07
2023-02-17T08:39:20.826Z,35.15
2023-02-17T08:41:52.473Z,34.89
2023-02-17T08:44:24.557Z,34.93
2023-02-17T08:46:56.996Z,34.76
2023-02-17T08:49:32.447Z,34.49
2023-02-17T08:52:03.020Z,34.62
2023-02-17T08:54:36.823Z,34.44
2023-02-17T08:57:07.593Z,34.38
2023-02-17T08:59:38.710Z,34.17
2023-02-17T09:02:09.444Z,34.19
2023-02-17T09:04:40.059Z,33.98
2023-02-17T09:07:14.397Z,33.70
2023-02-17T09:09:46.422Z,33.61
2023-02-17T09:12:17.117Z,33.65
2023-02-17T09:14:48.040Z,33.52
2023-02-17T09:17:18.713Z,33.34
2023-02-17T09:19:49.673Z,33.38
2023-02-17T09:22:31.468Z,33.45
2023-02-17T09:25:04.534Z,33.12
2023-02-17T09:27:35.611Z,33.37
2023-02-17T09:30:07.303Z,33.10
2023-02-17T09:32:37.816Z,32.74
2023-02-17T09:35:09.714Z,33.00
2023-02-17T09:37:40.262Z,33.11
2023-02-17T09:40:22.643Z,33.03
2023-02-17T09:42:54.519Z,33.03
2023-02-17T09:45:32.594Z,32.84
2023-02-17T09:48:08.605Z,32.82
2023-02-17T09:50:49.435Z,32.81
2023-02-17T09:53:30.808Z,32.97
2023-02-17T09:56:11.187Z,32.60
2023-02-17T09:58:49.895Z,32.68
2023-02-17T10:01:24.705Z,32.61
2023-02-17T10:04:03.924Z,32.58
2023-02-17T10:06:40.095Z,32.71
2023-02-17T10:09:29.246Z,32.52
2023-02-17T10:12:07.208Z,32.67
2023-02-17T10:14:44.358Z,32.86
2023-02-17T10:17:28.833Z,32.80
2023-02-17T10:20:08.193Z,32.58
2023-02-17T10:22:40.039Z,32.67
2023-02-17T10:25:20.960Z,32.63
2023-02-17T10:28:05.035Z,32.60
2023-02-17T10:30:56.772Z,32.64
2023-02-17T10:33:37.039Z,32.63
2023-02-17T10:36:21.656Z,32.36
2023-02-17T10:38:54.639Z,32.75
2023-02-17T10:41:30.864Z,32.56
2023-02-17T10:44:09.372Z,32.37
2023-02-17T10:46:43.196Z,32.50
2023-02-17T10:49:26.270Z,32.60
2023-02-17T10:51:57.019Z,32.61
2023-02-17T10:54:39.235Z,32.68
2023-02-17T10:57:15.530Z,32.36
2023-02-17T10:59:50.638Z,32.42
2023-02-17T11:02:24.771Z,32.35
2023-02-17T11:04:57.232Z,32.51
2023-02-17T11:07:37.270Z,32.25
2023-02-17T11:10:25.097Z,32.31
2023-02-17T11:12:56.505Z,32.46
2023-02-17T11:15:33.773Z,32.39
2023-02-17T11:18:13.213Z,32.23
2023-02-17T11:20:44.289Z,32.33
2023-02-17T11:23:28.805Z,32.30
2023-02-17T11:26:11.029Z,32.30
2023-02-17T11:28:41.571Z,32.12
2023-02-17T11:31:31.047Z,32.41
2023-02-17T11:34:01.878Z,32.47
2023-02-17T11:36:36.151Z,32.36
2023-02-17T11:39:22.395Z,32.49
2023-02-17T11:41:52.656Z,32.12
2023-02-17T11:44:29.086Z,32.48
2023-02-17T11:47:19.413Z,32.22
2023-02-17T11:50:40.935Z,32.65
2023-02-17T11:53:29.445Z,32.63
2023-02-17T11:56:20.451Z,32.60
2023-02-17T11:59:18.847Z,32.47
2023-02-17T12:02:16.820Z,32.71
2023-02-17T12:05:05.449Z,32.39
2023-02-17T12:08:14.800Z,32.35
2023-02-17T12:11:04.295Z,32.22
2023-02-17T12:13:52.831Z,32.63
2023-02-17T12:16:47.993Z,32.56
2023-02-17T12:19:44.958Z,32.86
2023-02-17T12:22:22.795Z,32.53
2023-02-17T12:25:48.368Z,32.63
2023-02-17T12:28:51.412Z,32.40
2023-02-17T12:31:45.217Z,32.27
2023-02-17T12:34:32.697Z,32.77
2023-02-17T12:37:04.660Z,32.79
2023-02-17T12:39:45.165Z,32.58
2023-02-17T12:42:22.255Z,32.65
2023-02-17T12:44:58.486Z,32.47
2023-02-17T12:47:39.706Z,32.72
2023-02-17T12:50:27.770Z,32.68
2023-02-17T12:53:05.356Z,32.60
2023-02-17T12:55:49.002Z,32.70
2023-02-17T12:58:25.125Z,32.61
2023-02-17T13:01:07.153Z,32.72
2023-02-17T13:03:40.241Z,32.87
2023-02-17T13:06:28.491Z,32.64
2023-02-17T13:09:06.220Z,32.64
2023-02-17T13:11:38.920Z,32.82
2023-02-17T13:14:15.361Z,32.84
2023-02-17T13:16:47.703Z,32.58
2023-02-17T13:19:29.707Z,32.86
2023-02-17T13:22:06.049Z,32.53
2023-02-17T13:24:39.348Z,32.62
2023-02-17T13:27:22.585Z,32.38
2023-02-17T13:30:03.585Z,32.47
2023-02-17T13:32:38.907Z,32.66
2023-02-17T13:35:31.964Z,32.71
2023-02-17T13:38:05.513Z,32.99
2023-02-17T13:40:45.005Z,32.54
2023-02-17T13:43:20.657Z,32.70
2023-02-17T13:46:00.189Z,32.35
2023-02-17T13:48:37.258Z,32.59
2023-02-17T13:51:10.352Z,32.51
2023-02-17T13:53:44.859Z,33.01
2023-02-17T13:56:28.094Z,32.53
2023-02-17T13:59:09.716Z,32.81
2023-02-17T14:01:46.943Z,32.79
2023-02-17T14:04:26.092Z,32.58
2023-02-17T14:06:59.867Z,32.76
2023-02-17T14:09:34.742Z,32.51
2023-02-17T14:12:09.485Z,32.58
2023-02-17T14:14:41.381Z,32.97
2023-02-17T14:17:32.438Z,32.79
2023-02-17T14:20:02.735Z,33.03
2023-02-17T14:22:38.475Z,32.71
2023-02-17T14:25:17.976Z,32.86
2023-02-17T14:27:52.018Z,32.65
2023-02-17T14:30:34.212Z,32.66
2023-02-17T14:33:11.226Z,33.07
2023-02-17T14:35:52.619Z,33.07
2023-02-17T14:38:27.046Z,33.07
2023-02-17T14:41:01.813Z,33.18
2023-02-17T14:43:33.291Z,33.04
2023-02-17T14:46:04.245Z,32.91
2023-02-17T14:48:37.269Z,33.02
2023-02-17T14:51:15.910Z,32.70
2023-02-17T14:53:47.563Z,33.19
2023-02-17T14:56:28.904Z,33.02
2023-02-17T14:58:59.526Z,33.12
2023-02-17T15:01:29.702Z,33.08
2023-02-17T15:04:00.009Z,33.27
2023-02-17T15:06:40.862Z,33.14
2023-02-17T15:09:15.836Z,33.29
2023-02-17T15:11:49.457Z,33.18
2023-02-17T15:14:23.915Z,33.07
2023-02-17T15:16:54.570Z,32.77
2023-02-17T15:19:25.796Z,33.11
2023-02-17T15:21:57.534Z,33.31
2023-02-17T15:24:33.457Z,33.14
2023-02-17T15:27:07.330Z,33.09
2023-02-17T15:29:38.179Z,33.42
2023-02-17T15:32:20.279Z,33.19
2023-02-17T15:34:51.868Z,33.50
2023-02-17T15:37:22.605Z,33.23
2023-02-17T15:39:52.779Z,33.44
2023-02-17T15:42:26.986Z,33.30
2023-02-17T15:44:58.192Z,33.15
2023-02-17T15:47:28.081Z,33.24
2023-02-17T15:49:59.510Z,33.10
2023-02-17T15:52:32.913Z,33.30
2023-02-17T15:55:05.766Z,33.28
2023-02-17T15:57:42.563Z,33.40
2023-02-17T16:00:22.936Z,33.21
2023-02-17T16:02:54.210Z,33.18
2023-02-17T16:05:27.632Z,33.28
2023-02-17T16:07:59.622Z,33.16
2023-02-17T16:10:40.670Z,33.13
2023-02-17T16:13:17.816Z,33.40
2023-02-17T16:15:51.062Z,32.99
2023-02-17T16:18:24.645Z,33.47
2023-02-17T16:20:55.318Z,33.47
2023-02-17T16:23:25.679Z,33.65
2023-02-17T16:25:55.749Z,33.47
2023-02-17T16:28:28.169Z,33.38
2023-02-17T16:31:00.859Z,33.37
2023-02-17T16:33:33.215Z,33.49
2023-02-17T16:36:03.522Z,33.58
2023-02-17T16:38:35.338Z,33.08
2023-02-17T16:41:16.753Z,33.64
2023-02-17T16:43:50.212Z,33.09
2023-02-17T16:46:30.699Z,33.36
2023-02-17T16:49:04.175Z,33.53
2023-02-17T16:51:35.752Z,33.26
2023-02-17T16:54:08.406Z,33.66
2023-02-17T16:56:46.135Z,33.32
2023-02-17T16:59:21.619Z,33.39
2023-02-17T17:01:53.878Z,33.41
2023-02-17T17:04:24.994Z,33.88
2023-02-17T17:07:16.426Z,33.65
2023-02-17T17:10:06.965Z,33.64
2023-02-17T17:12:38.180Z,33.69
2023-02-17T17:15:12.271Z,33.79
2023-02-17T17:17:48.913Z,33.79
2023-02-17T17:20:26.389Z,33.38
2023-02-17T17:22:57.469Z,33.42
2023-02-17T17:25:29.992Z,33.39
2023-02-17T17:28:00.886Z,33.58
2023-02-17T17:30:37.693Z,33.72
2023-02-17T17:33:08.743Z,33.89
2023-02-17T17:35:40.127Z,33.46
2023-02-17T17:38:12.209Z,33.83
2023-02-17T17:40:50.610Z,33.54
2023-02-17T17:43:24.086Z,34.03
2023-02-17T17:45:57.335Z,33.59
2023-02-17T17:48:28.711Z,33.86
2023-02-17T17:50:59.517Z,33.92
2023-02-17T17:53:29.848Z,33.81
2023-02-17T17:56:01.117Z,33.89
2023-02-17T17:58:32.136Z,33.82
2023-02-17T18:01:05.850Z,33.64
2023-02-17T18:03:36.478Z,33.82
2023-02-17T18:06:09.604Z,33.84
2023-02-17T18:08:41.424Z,33.71
2023-02-17T18:11:12.742Z,33.80
2023-02-17T18:13:44.955Z,34.20
2023-02-17T18:16:17.672Z,34.22
2023-02-17T18:18:48.880Z,33.78
2023-02-17T18:21:19.646Z,34.03
2023-02-17T18:23:50.509Z,33.88
2023-02-17T18:26:21.964Z,34.30
2023-02-17T18:28:53.665Z,34.18
2023-02-17T18:31:31.788Z,33.98
2023-02-17T18:34:06.860Z,33.80
2023-02-17T18:36:37.703Z,34.04
2023-02-17T18:39:08.545Z,34.12
2023-02-17T18:41:39.763Z,34.11
2023-02-17T18:44:12.040Z,33.89
2023-02-17T18:46:45.483Z,34.13
2023-02-17T18:49:16.262Z,33.90
2023-02-17T18:51:47.127Z,34.32
2023-02-17T18:54:17.163Z,34.37
2023-02-17T18:56:48.414Z,34.07
2023-02-17T18:59:19.036Z,34.17
2023-02-17T19:01:51.108Z,34.02
2023-02-17T19:04:22.115Z,33.92
2023-02-17T19:06:52.582Z,33.96
2023-02-17T19:09:22.800Z,34.04
2023-02-17T19:11:53.722Z,33.97
2023-02-17T19:14:24.462Z,33.92
2023-02-17T19:16:57.583Z,34.14
2023-02-17T19:19:32.385Z,34.38
2023-02-17T19:22:04.122Z,34.36
2023-02-17T19:24:34.442Z,33.99
2023-02-17T19:27:05.884Z,34.57
2023-02-17T19:29:37.478Z,34.47
2023-02-17T19:32:10.794Z,34.41
2023-02-17T19:34:41.751Z,33.93
2023-02-17T19:37:13.678Z,34.27
2023-02-17T19:39:44.274Z,34.22
2023-02-17T19:42:14.472Z,34.12
2023-02-17T19:44:45.843Z,34.05
2023-02-17T19:47:18.173Z,34.64
2023-02-17T19:49:49.065Z,34.29
2023-02-17T19:52:20.721Z,34.21
2023-02-17T19:54:52.794Z,34.73
2023-02-17T19:57:24.043Z,34.44
2023-02-17T19:59:54.856Z,34.59
2023-02-17T20:02:26.812Z,34.63
2023-02-17T20:04:57.564Z,34.17
2023-02-17T20:07:28.815Z,34.61
2023-02-17T20:09:59.440Z,34.28
2023-02-17T20:12:29.831Z,34.73
2023-02-17T20:15:01.598Z,34.82
2023-02-17T20:17:33.907Z,34.68
2023-02-17T20:20:05.416Z,34.87
2023-02-17T20:22:36.120Z,34.72
2023-02-17T20:25:06.916Z,34.88
2023-02-17T20:27:37.440Z,34.42
2023-02-17T20:30:09.199Z,34.75
2023-02-17T20:32:44.375Z,34.45
2023-02-17T20:35:18.384Z,34.81
2023-02-17T20:37:48.663Z,34.41
2023-02-17T20:40:19.307Z,34.85
2023-02-17T20:42:50.774Z,34.42
2023-02-17T20:45:21.493Z,34.99
2023-02-17T20:47:54.993Z,34.98
2023-02-17T20:50:25.913Z,34.55
2023-02-17T20:52:56.482Z,34.99
2023-02-17T20:55:28.033Z,34.38
2023-02-17T20:57:58.351Z,34.92
2023-02-17T21:00:32.222Z,34.90
2023-02-17T21:03:04.427Z,34.88
2023-02-17T21:05:34.800Z,34.93
2023-02-17T21:08:06.432Z,34.87
2023-02-17T21:10:36.756Z,34.63
2023-02-17T21:13:08.111Z,34.61
2023-02-17T21:15:38.895Z,34.96
2023-02-17T21:18:11.633Z,34.82
2023-02-17T21:20:41.519Z,34.69
2023-02-17T21:23:12.298Z,34.57
2023-02-17T21:25:42.893Z,34.79
2023-02-17T21:28:16.570Z,34.76
2023-02-17T21:30:50.054Z,34.97
2023-02-17T21:33:22.574Z,34.87
2023-02-17T21:35:56.085Z,34.94
2023-02-17T21:38:26.755Z,35.06
2023-02-17T21:40:59.884Z,35.13
2023-02-17T21:43:50.593Z,35.11
2023-02-17T21:46:23.276Z,35.25
2023-02-17T21:48:56.879Z,35.03
2023-02-17T21:51:28.704Z,35.29
2023-02-17T21:53:59.726Z,35.30
2023-02-17T21:56:31.410Z,34.70
2023-02-17T21:59:01.681Z,34.70
2023-02-17T22:01:33.802Z,35.14
2023-02-17T22:04:06.362Z,34.93
2023-02-17T22:06:39.301Z,35.17
2023-02-17T22:09:12.085Z,35.16
2023-02-17T22:11:45.593Z,34.84
2023-02-17T22:14:19.768Z,34.71
2023-02-17T22:16:51.698Z,34.81
2023-02-17T22:19:30.374Z,34.86
2023-02-17T22:22:02.701Z,35.25
2023-02-17T22:24:32.885Z,35.35
2023-02-17T22:27:03.418Z,35.06
2023-02-17T22:29:35.212Z,34.99
2023-02-17T22:32:06.620Z,35.18
2023-02-17T22:34:39.573Z,35.35
2023-02-17T22:37:11.038Z,34.86
2023-02-17T22:39:41.731Z,35.48
2023-02-17T22:42:13.096Z,35.22
2023-02-17T22:44:44.255Z,35.36
2023-02-17T22:47:14.904Z,35.40
2023-02-17T22:49:47.914Z,35.46
2023-02-17T22:52:18.512Z,35.24
2023-02-17T22:54:49.114Z,35.49
2023-02-17T22:57:19.871Z,35.38
2023-02-17T22:59:50.911Z,35.13
2023-02-17T23:02:21.607Z,35.46
2023-02-17T23:04:54.439Z,35.53
2023-02-17T23:07:25.750Z,35.10
2023-02-17T23:09:57.040Z,35.54
2023-02-17T23:12:27.487Z,35.38
2023-02-17T23:14:58.673Z,35.52
2023-02-17T23:17:49.777Z,34.91
2023-02-17T23:20:24.105Z,35.62
2023-02-17T23:22:55.142Z,35.30
2023-02-17T23:25:26.091Z,35.59
2023-02-17T23:27:57.396Z,35.64
2023-02-17T23:30:28.980Z,35.64
2023-02-17T23:33:00.381Z,35.56
2023-02-17T23:35:33.143Z,34.99
2023-02-17T23:38:03.942Z,35.43
2023-02-17T23:40:34.647Z,35.39
2023-02-17T23:43:05.694Z,35.14
2023-02-17T23:45:37.415Z,35.56
2023-02-17T23:48:09.996Z,35.54
2023-02-17T23:50:42.590Z,35.22
2023-02-17T23:53:12.687Z,35.51
2023-02-17T23:55:43.467Z,35.54
2023-02-17T23:58:14.125Z,35.63
